Terminal Aerodrome Forecast
Issued by NWS

Home | Current Version | Previous Version | Text Only | Print | Product List | Glossary On
Versions: 1 2 3 4 5 6 7 8 9 10 11 12 13 14 15 16 17
484
FTUS46 KSGX 271959 AAA
TAFONT
TAF AMD
KONT 271959Z 2720/2824 24014G22KT P6SM SCT035
     FM280300 VRB05KT P6SM SKC
     FM280600 VRB05KT P6SM SKC WS015/03025KT
     FM280900 03010KT P6SM SKC
     FM281500 04015G25KT P6SM SKC
     FM282000 VRB05KT P6SM SKC=

USA.gov is the U.S. government's official web portal to all federal, state and local government web resources and services.